createdAt,value
2023-05-04T00:01:11.118Z,68.38
2023-05-04T00:06:12.504Z,68.13
2023-05-04T00:11:13.845Z,69.41
2023-05-04T00:16:15.261Z,69.41
2023-05-04T00:21:16.822Z,69.35
2023-05-04T00:26:18.151Z,69.53
2023-05-04T00:31:19.809Z,70.30
2023-05-04T00:36:21.268Z,71.08
2023-05-04T00:41:22.648Z,71.85
2023-05-04T00:46:24.388Z,72.15
2023-05-04T00:51:26.434Z,72.53
2023-05-04T00:56:32.535Z,73.03
2023-05-04T01:01:34.076Z,73.07
2023-05-04T01:06:49.853Z,72.76
2023-05-04T01:12:07.891Z,74.16
2023-05-04T01:17:09.484Z,74.23
2023-05-04T01:22:11.129Z,73.46
2023-05-04T01:27:23.044Z,73.63
2023-05-04T01:32:27.303Z,73.41
2023-05-04T01:37:28.767Z,73.95
2023-05-04T01:42:30.124Z,74.96
2023-05-04T01:47:31.627Z,75.45
2023-05-04T01:52:33.107Z,75.81
2023-05-04T01:57:34.470Z,76.09
2023-05-04T02:02:35.914Z,76.26
2023-05-04T02:07:37.729Z,77.05
2023-05-04T02:12:39.149Z,76.22
2023-05-04T02:17:40.717Z,77.13
2023-05-04T02:22:42.183Z,77.71
2023-05-04T02:27:43.619Z,77.45
2023-05-04T02:32:45.049Z,78.49
2023-05-04T02:37:46.443Z,78.06
2023-05-04T02:42:47.886Z,78.32
2023-05-04T02:47:49.259Z,78.01
2023-05-04T02:52:50.648Z,78.71
2023-05-04T02:57:51.976Z,79.39
2023-05-04T03:02:53.671Z,80.32
2023-05-04T03:07:55.027Z,80.26
2023-05-04T03:12:56.435Z,80.66
2023-05-04T03:17:57.969Z,80.02
2023-05-04T03:22:59.600Z,80.48
2023-05-04T03:28:01.175Z,80.48
2023-05-04T03:33:02.668Z,80.65
2023-05-04T03:38:06.493Z,80.98
2023-05-04T03:43:08.004Z,79.98
2023-05-04T03:48:09.492Z,80.12
2023-05-04T03:53:10.939Z,80.15
2023-05-04T03:58:13.252Z,80.16
2023-05-04T04:03:15.070Z,80.79
2023-05-04T04:08:16.720Z,81.58
2023-05-04T04:13:18.196Z,83.81
2023-05-04T04:18:19.635Z,84.04
2023-05-04T04:23:21.708Z,83.48
2023-05-04T04:28:23.117Z,84.87
2023-05-04T04:33:24.481Z,82.73
2023-05-04T04:38:26.142Z,83.31
2023-05-04T04:43:27.592Z,85.06
2023-05-04T04:48:29.351Z,82.75
2023-05-04T04:53:31.030Z,81.74
2023-05-04T04:58:32.496Z,84.29
2023-05-04T05:03:33.923Z,82.16
2023-05-04T05:08:35.338Z,81.61
2023-05-04T05:13:41.013Z,79.81
2023-05-04T05:18:42.924Z,79.01
2023-05-04T05:23:44.342Z,77.33
2023-05-04T05:28:46.239Z,76.36
2023-05-04T05:33:47.604Z,76.78
2023-05-04T05:38:50.359Z,77.23
2023-05-04T05:43:51.948Z,76.88
2023-05-04T05:48:53.405Z,76.25
2023-05-04T05:53:54.851Z,76.78
2023-05-04T05:58:56.343Z,75.38
2023-05-04T06:03:57.950Z,74.78
2023-05-04T06:09:00.260Z,74.40
2023-05-04T06:14:01.679Z,72.34
2023-05-04T06:19:03.176Z,71.84
2023-05-04T06:24:04.803Z,72.04
2023-05-04T06:29:06.168Z,70.97
2023-05-04T06:34:07.501Z,69.84
2023-05-04T06:39:08.905Z,69.65
2023-05-04T06:44:10.285Z,69.77
2023-05-04T06:49:12.204Z,68.61
2023-05-04T06:54:13.709Z,64.88
2023-05-04T06:59:16.792Z,64.05
2023-05-04T07:04:22.901Z,63.97
2023-05-04T07:09:24.247Z,63.53
2023-05-04T07:14:25.671Z,62.51
2023-05-04T07:19:27.480Z,63.53
2023-05-04T07:24:31.705Z,62.14
2023-05-04T07:29:33.129Z,62.05
2023-05-04T07:34:45.008Z,61.53
2023-05-04T07:39:47.256Z,62.44
2023-05-04T07:44:48.682Z,61.65
2023-05-04T07:49:50.172Z,61.87
2023-05-04T07:54:53.229Z,61.07
2023-05-04T07:59:55.391Z,60.04
2023-05-04T08:04:56.769Z,59.53
2023-05-04T08:09:58.333Z,58.08
2023-05-04T08:15:00.002Z,58.79
2023-05-04T08:20:01.819Z,56.96
2023-05-04T08:25:03.381Z,56.41
2023-05-04T08:30:05.349Z,56.29
2023-05-04T08:35:06.974Z,55.88
2023-05-04T08:40:08.716Z,54.80
2023-05-04T08:45:10.501Z,53.78
2023-05-04T08:50:12.282Z,54.54
2023-05-04T08:55:14.108Z,53.64
2023-05-04T09:00:16.544Z,53.55
2023-05-04T09:05:18.192Z,54.01
2023-05-04T09:10:20.061Z,54.23
2023-05-04T09:15:21.826Z,53.18
2023-05-04T09:20:23.225Z,53.42
2023-05-04T09:25:24.554Z,53.56
2023-05-04T09:30:26.138Z,53.84
2023-05-04T09:35:33.794Z,52.28
2023-05-04T09:40:42.204Z,52.35
2023-05-04T09:45:44.907Z,52.77
2023-05-04T09:50:51.000Z,51.61
2023-05-04T09:55:55.352Z,50.80
2023-05-04T10:00:57.195Z,51.07
2023-05-04T10:06:00.247Z,50.55
2023-05-04T10:11:01.828Z,49.93
2023-05-04T10:16:18.346Z,49.01
2023-05-04T10:21:25.598Z,49.28
2023-05-04T10:26:26.929Z,47.66
2023-05-04T10:31:41.061Z,47.16
2023-05-04T10:36:42.560Z,46.14
2023-05-04T10:41:55.677Z,45.69
2023-05-04T10:47:07.924Z,46.06
2023-05-04T10:52:10.648Z,45.18
2023-05-04T10:57:13.706Z,45.67
2023-05-04T11:02:22.271Z,45.71
2023-05-04T11:07:32.387Z,46.05
2023-05-04T11:12:34.149Z,45.18
2023-05-04T11:17:44.905Z,46.12
2023-05-04T11:22:46.363Z,45.29
2023-05-04T11:27:48.998Z,44.37
2023-05-04T11:32:51.814Z,44.61
2023-05-04T11:37:53.615Z,43.28
2023-05-04T11:42:57.071Z,43.04
2023-05-04T11:47:59.237Z,42.00
2023-05-04T11:53:10.527Z,42.12
2023-05-04T11:58:11.984Z,42.78
2023-05-04T12:03:14.463Z,42.10
2023-05-04T12:08:29.673Z,41.52
2023-05-04T12:13:31.005Z,42.33
2023-05-04T12:18:32.452Z,39.96
2023-05-04T12:23:33.869Z,40.58
2023-05-04T12:28:36.062Z,41.11
2023-05-04T12:33:37.496Z,38.77
2023-05-04T12:38:39.010Z,38.98
2023-05-04T12:43:40.518Z,38.69
2023-05-04T12:48:41.884Z,38.87
2023-05-04T12:53:43.662Z,38.63
2023-05-04T12:58:45.062Z,38.85
2023-05-04T13:03:46.676Z,37.67
2023-05-04T13:08:48.377Z,36.15
2023-05-04T13:13:49.738Z,36.51
2023-05-04T13:18:51.169Z,36.52
2023-05-04T13:23:52.551Z,35.87
2023-05-04T13:28:53.934Z,34.56
2023-05-04T13:33:55.384Z,35.47
2023-05-04T13:38:56.750Z,36.94
2023-05-04T13:43:58.185Z,37.09
2023-05-04T13:48:59.518Z,37.59
2023-05-04T13:54:02.658Z,37.09
2023-05-04T13:59:04.364Z,36.41
2023-05-04T14:04:06.519Z,35.81
2023-05-04T14:09:08.061Z,36.19
2023-05-04T14:14:09.416Z,35.70
2023-05-04T14:19:10.862Z,36.80
2023-05-04T14:24:12.515Z,35.47
2023-05-04T14:29:13.922Z,35.25
2023-05-04T14:34:15.363Z,35.53
2023-05-04T14:39:17.308Z,35.40
2023-05-04T14:44:19.446Z,36.01
2023-05-04T14:49:35.889Z,34.54
2023-05-04T14:54:38.382Z,34.90
2023-05-04T14:59:40.262Z,35.06
2023-05-04T15:04:41.672Z,35.69
2023-05-04T15:09:43.171Z,35.87
2023-05-04T15:14:44.603Z,33.40
2023-05-04T15:19:46.117Z,34.47
2023-05-04T15:24:47.457Z,33.66
2023-05-04T15:29:48.885Z,34.23
2023-05-04T15:34:57.413Z,33.40
2023-05-04T15:40:04.537Z,33.98
2023-05-04T15:45:07.327Z,32.41
2023-05-04T15:50:10.224Z,33.33
2023-05-04T15:55:24.759Z,32.13
2023-05-04T16:00:27.738Z,33.39
2023-05-04T16:05:29.104Z,32.56
2023-05-04T16:10:30.723Z,33.04
2023-05-04T16:15:32.251Z,32.00
2023-05-04T16:20:33.655Z,31.25
2023-05-04T16:25:35.002Z,32.00
2023-05-04T16:30:36.467Z,31.72
2023-05-04T16:35:38.061Z,32.71
2023-05-04T16:40:41.090Z,32.19
2023-05-04T16:45:42.473Z,33.25
2023-05-04T16:50:43.847Z,32.58
2023-05-04T16:55:45.224Z,32.90
2023-05-04T17:00:46.661Z,33.66
2023-05-04T17:05:48.031Z,34.31
2023-05-04T17:10:49.562Z,34.48
2023-05-04T17:15:50.942Z,35.09
2023-05-04T17:20:52.303Z,35.43
2023-05-04T17:25:53.886Z,35.59
2023-05-04T17:30:55.472Z,36.51
2023-05-04T17:35:57.191Z,36.62
2023-05-04T17:40:58.552Z,36.88
2023-05-04T17:46:00.260Z,37.41
2023-05-04T17:51:01.628Z,37.94
2023-05-04T17:56:03.181Z,37.60
2023-05-04T18:01:04.621Z,38.22
2023-05-04T18:06:06.148Z,38.40
2023-05-04T18:11:07.496Z,39.02
2023-05-04T18:16:08.966Z,39.16
2023-05-04T18:21:10.714Z,39.51
2023-05-04T18:26:19.278Z,39.83
2023-05-04T18:31:20.672Z,39.89
2023-05-04T18:36:22.061Z,40.54
2023-05-04T18:41:23.996Z,41.04
2023-05-04T18:46:25.398Z,41.04
2023-05-04T18:51:27.737Z,41.25
2023-05-04T18:56:29.094Z,41.56
2023-05-04T19:01:30.532Z,42.42
2023-05-04T19:06:32.584Z,42.53
2023-05-04T19:11:34.362Z,42.66
2023-05-04T19:16:35.834Z,43.15
2023-05-04T19:21:37.235Z,43.31
2023-05-04T19:26:39.585Z,43.44
2023-05-04T19:31:41.193Z,43.67
2023-05-04T19:36:42.833Z,43.98
2023-05-04T19:41:44.344Z,44.36
2023-05-04T19:46:47.208Z,44.55
2023-05-04T19:51:48.809Z,44.90
2023-05-04T19:56:50.421Z,45.46
2023-05-04T20:01:51.797Z,45.55
2023-05-04T20:06:53.599Z,45.59
2023-05-04T20:11:55.031Z,46.21
2023-05-04T20:16:56.997Z,46.53
2023-05-04T20:21:58.728Z,47.46
2023-05-04T20:27:00.245Z,47.67
2023-05-04T20:32:04.935Z,48.41
2023-05-04T20:37:06.358Z,47.89
2023-05-04T20:42:08.084Z,48.76
2023-05-04T20:47:10.051Z,48.32
2023-05-04T20:52:11.516Z,48.87
2023-05-04T20:57:13.046Z,51.95
2023-05-04T21:02:14.528Z,51.71
2023-05-04T21:07:15.981Z,50.59
2023-05-04T21:12:17.402Z,48.83
2023-05-04T21:17:18.835Z,49.94
2023-05-04T21:22:20.245Z,50.15
2023-05-04T21:27:21.636Z,50.43
2023-05-04T21:32:23.014Z,51.13
2023-05-04T21:37:24.426Z,51.51
2023-05-04T21:42:25.803Z,51.22
2023-05-04T21:47:27.303Z,51.18
2023-05-04T21:52:28.756Z,49.39
2023-05-04T21:57:33.172Z,50.55
2023-05-04T22:02:34.531Z,50.65
2023-05-04T22:07:36.703Z,50.42
2023-05-04T22:12:38.234Z,50.11
2023-05-04T22:17:39.593Z,49.91
2023-05-04T22:22:41.018Z,50.60
2023-05-04T22:27:42.398Z,50.84
2023-05-04T22:32:44.363Z,50.76
2023-05-04T22:37:49.037Z,51.02
2023-05-04T22:42:50.381Z,51.18
2023-05-04T22:47:51.949Z,50.59
2023-05-04T22:52:53.368Z,51.27
2023-05-04T22:57:54.887Z,52.80
2023-05-04T23:02:56.599Z,53.11
2023-05-04T23:07:58.120Z,53.21
2023-05-04T23:12:59.474Z,53.44
2023-05-04T23:18:02.751Z,53.74
2023-05-04T23:23:04.151Z,54.25
2023-05-04T23:28:05.538Z,54.81
2023-05-04T23:33:06.986Z,54.43
2023-05-04T23:38:08.631Z,55.24
2023-05-04T23:43:10.047Z,55.64
2023-05-04T23:48:11.405Z,57.15
2023-05-04T23:53:12.764Z,58.25
2023-05-04T23:58:14.264Z,59.37
